sensor_id;sensor_type;location;lat;lon;timestamp;P1;durP1;ratioP1;P2;durP2;ratioP2
67053;SDS011;53960;51.826;5.850;2024-01-16T00:01:04;9.90;;;2.10;;
67053;SDS011;53960;51.826;5.850;2024-01-16T00:03:30;8.13;;;1.70;;
67053;SDS011;53960;51.826;5.850;2024-01-16T00:05:55;8.15;;;1.75;;
67053;SDS011;53960;51.826;5.850;2024-01-16T00:08:20;8.80;;;1.87;;
67053;SDS011;53960;51.826;5.850;2024-01-16T00:10:46;8.00;;;1.93;;
67053;SDS011;53960;51.826;5.850;2024-01-16T00:13:11;9.87;;;2.43;;
67053;SDS011;53960;51.826;5.850;2024-01-16T00:15:37;7.97;;;1.67;;
67053;SDS011;53960;51.826;5.850;2024-01-16T00:18:02;7.50;;;1.80;;
67053;SDS011;53960;51.826;5.850;2024-01-16T00:20:28;7.53;;;1.70;;
67053;SDS011;53960;51.826;5.850;2024-01-16T00:22:53;8.00;;;1.90;;
67053;SDS011;53960;51.826;5.850;2024-01-16T00:25:19;9.65;;;2.45;;
67053;SDS011;53960;51.826;5.850;2024-01-16T00:27:45;6.13;;;1.50;;
67053;SDS011;53960;51.826;5.850;2024-01-16T00:30:11;11.10;;;2.00;;
67053;SDS011;53960;51.826;5.850;2024-01-16T00:32:37;9.32;;;1.90;;
67053;SDS011;53960;51.826;5.850;2024-01-16T00:35:04;9.57;;;1.75;;
67053;SDS011;53960;51.826;5.850;2024-01-16T00:37:30;7.27;;;1.60;;
67053;SDS011;53960;51.826;5.850;2024-01-16T00:39:55;7.53;;;1.60;;
67053;SDS011;53960;51.826;5.850;2024-01-16T00:42:20;9.73;;;1.90;;
67053;SDS011;53960;51.826;5.850;2024-01-16T00:44:46;9.83;;;2.13;;
67053;SDS011;53960;51.826;5.850;2024-01-16T00:47:11;7.20;;;1.63;;
67053;SDS011;53960;51.826;5.850;2024-01-16T00:49:37;9.70;;;1.97;;
67053;SDS011;53960;51.826;5.850;2024-01-16T00:52:02;10.80;;;1.90;;
67053;SDS011;53960;51.826;5.850;2024-01-16T00:54:28;6.88;;;1.73;;
67053;SDS011;53960;51.826;5.850;2024-01-16T00:56:53;6.13;;;1.77;;
67053;SDS011;53960;51.826;5.850;2024-01-16T00:59:24;9.88;;;2.17;;
67053;SDS011;53960;51.826;5.850;2024-01-16T01:01:49;8.50;;;2.13;;
67053;SDS011;53960;51.826;5.850;2024-01-16T01:04:15;8.23;;;2.33;;
67053;SDS011;53960;51.826;5.850;2024-01-16T01:06:40;8.53;;;2.37;;
67053;SDS011;53960;51.826;5.850;2024-01-16T01:09:05;9.30;;;2.90;;
67053;SDS011;53960;51.826;5.850;2024-01-16T01:11:31;9.52;;;2.63;;
67053;SDS011;53960;51.826;5.850;2024-01-16T01:13:56;9.30;;;2.63;;
67053;SDS011;53960;51.826;5.850;2024-01-16T01:16:21;8.13;;;2.27;;
67053;SDS011;53960;51.826;5.850;2024-01-16T01:18:47;9.20;;;2.60;;
67053;SDS011;53960;51.826;5.850;2024-01-16T01:21:12;9.23;;;2.50;;
67053;SDS011;53960;51.826;5.850;2024-01-16T01:23:38;10.13;;;2.30;;
67053;SDS011;53960;51.826;5.850;2024-01-16T01:26:03;8.87;;;2.77;;
67053;SDS011;53960;51.826;5.850;2024-01-16T01:28:30;10.95;;;2.80;;
67053;SDS011;53960;51.826;5.850;2024-01-16T01:30:56;8.97;;;2.30;;
67053;SDS011;53960;51.826;5.850;2024-01-16T01:33:21;8.90;;;2.70;;
67053;SDS011;53960;51.826;5.850;2024-01-16T01:35:46;9.10;;;2.47;;
67053;SDS011;53960;51.826;5.850;2024-01-16T01:38:12;7.87;;;2.60;;
67053;SDS011;53960;51.826;5.850;2024-01-16T01:40:37;8.43;;;2.53;;
67053;SDS011;53960;51.826;5.850;2024-01-16T01:43:18;10.60;;;3.20;;
67053;SDS011;53960;51.826;5.850;2024-01-16T01:45:53;11.60;;;2.80;;
67053;SDS011;53960;51.826;5.850;2024-01-16T01:48:36;8.95;;;3.25;;
67053;SDS011;53960;51.826;5.850;2024-01-16T01:51:02;9.50;;;3.13;;
67053;SDS011;53960;51.826;5.850;2024-01-16T01:53:28;10.60;;;3.73;;
67053;SDS011;53960;51.826;5.850;2024-01-16T01:55:55;10.83;;;3.87;;
67053;SDS011;53960;51.826;5.850;2024-01-16T01:58:21;9.80;;;3.70;;
67053;SDS011;53960;51.826;5.850;2024-01-16T02:00:47;10.20;;;3.40;;
67053;SDS011;53960;51.826;5.850;2024-01-16T02:03:12;11.53;;;3.27;;
67053;SDS011;53960;51.826;5.850;2024-01-16T02:05:38;9.70;;;3.08;;
67053;SDS011;53960;51.826;5.850;2024-01-16T02:08:04;10.45;;;3.40;;
67053;SDS011;53960;51.826;5.850;2024-01-16T02:10:30;10.90;;;3.80;;
67053;SDS011;53960;51.826;5.850;2024-01-16T02:12:56;9.57;;;3.78;;
67053;SDS011;53960;51.826;5.850;2024-01-16T02:15:22;11.60;;;3.47;;
67053;SDS011;53960;51.826;5.850;2024-01-16T02:17:48;10.73;;;3.60;;
67053;SDS011;53960;51.826;5.850;2024-01-16T02:20:14;10.33;;;3.77;;
67053;SDS011;53960;51.826;5.850;2024-01-16T02:22:39;9.00;;;3.40;;
67053;SDS011;53960;51.826;5.850;2024-01-16T02:25:10;11.70;;;4.05;;
67053;SDS011;53960;51.826;5.850;2024-01-16T02:27:36;9.37;;;3.50;;
67053;SDS011;53960;51.826;5.850;2024-01-16T02:30:01;11.37;;;3.30;;
67053;SDS011;53960;51.826;5.850;2024-01-16T02:32:27;9.57;;;3.47;;
67053;SDS011;53960;51.826;5.850;2024-01-16T02:34:52;11.27;;;4.20;;
67053;SDS011;53960;51.826;5.850;2024-01-16T02:37:17;9.33;;;3.23;;
67053;SDS011;53960;51.826;5.850;2024-01-16T02:39:43;10.10;;;4.13;;
67053;SDS011;53960;51.826;5.850;2024-01-16T02:42:08;11.23;;;4.20;;
67053;SDS011;53960;51.826;5.850;2024-01-16T02:44:33;10.20;;;3.70;;
67053;SDS011;53960;51.826;5.850;2024-01-16T02:46:59;9.83;;;3.60;;
67053;SDS011;53960;51.826;5.850;2024-01-16T02:49:25;10.20;;;3.40;;
67053;SDS011;53960;51.826;5.850;2024-01-16T02:51:51;12.00;;;4.15;;
67053;SDS011;53960;51.826;5.850;2024-01-16T02:54:16;8.57;;;3.17;;
67053;SDS011;53960;51.826;5.850;2024-01-16T02:56:41;10.07;;;3.20;;
67053;SDS011;53960;51.826;5.850;2024-01-16T02:59:07;11.80;;;3.73;;
67053;SDS011;53960;51.826;5.850;2024-01-16T03:01:32;10.02;;;3.60;;
67053;SDS011;53960;51.826;5.850;2024-01-16T03:03:58;10.03;;;3.30;;
67053;SDS011;53960;51.826;5.850;2024-01-16T03:06:23;12.70;;;3.47;;
67053;SDS011;53960;51.826;5.850;2024-01-16T03:08:49;12.73;;;2.88;;
67053;SDS011;53960;51.826;5.850;2024-01-16T03:11:16;12.52;;;3.17;;
67053;SDS011;53960;51.826;5.850;2024-01-16T03:13:42;9.30;;;3.00;;
67053;SDS011;53960;51.826;5.850;2024-01-16T03:16:08;10.17;;;3.17;;
67053;SDS011;53960;51.826;5.850;2024-01-16T03:18:35;10.50;;;3.13;;
67053;SDS011;53960;51.826;5.850;2024-01-16T03:21:01;8.70;;;2.92;;
67053;SDS011;53960;51.826;5.850;2024-01-16T03:23:26;10.30;;;3.27;;
67053;SDS011;53960;51.826;5.850;2024-01-16T03:25:51;11.77;;;3.60;;
67053;SDS011;53960;51.826;5.850;2024-01-16T03:28:17;13.75;;;3.28;;
67053;SDS011;53960;51.826;5.850;2024-01-16T03:30:42;11.53;;;3.57;;
67053;SDS011;53960;51.826;5.850;2024-01-16T03:33:08;13.00;;;3.10;;
67053;SDS011;53960;51.826;5.850;2024-01-16T03:35:33;9.63;;;2.67;;
67053;SDS011;53960;51.826;5.850;2024-01-16T03:37:58;10.03;;;2.57;;
67053;SDS011;53960;51.826;5.850;2024-01-16T03:40:24;9.17;;;2.87;;
67053;SDS011;53960;51.826;5.850;2024-01-16T03:42:49;8.77;;;2.80;;
67053;SDS011;53960;51.826;5.850;2024-01-16T03:45:14;7.07;;;2.47;;
67053;SDS011;53960;51.826;5.850;2024-01-16T03:47:40;10.03;;;2.50;;
67053;SDS011;53960;51.826;5.850;2024-01-16T03:50:05;8.37;;;2.47;;
67053;SDS011;53960;51.826;5.850;2024-01-16T03:52:31;8.37;;;2.43;;
67053;SDS011;53960;51.826;5.850;2024-01-16T03:54:56;9.63;;;2.78;;
67053;SDS011;53960;51.826;5.850;2024-01-16T03:57:21;10.00;;;2.63;;
67053;SDS011;53960;51.826;5.850;2024-01-16T03:59:47;9.57;;;2.70;;
67053;SDS011;53960;51.826;5.850;2024-01-16T04:02:12;7.20;;;2.60;;
67053;SDS011;53960;51.826;5.850;2024-01-16T04:04:38;9.67;;;2.40;;
67053;SDS011;53960;51.826;5.850;2024-01-16T04:07:03;8.50;;;2.23;;
67053;SDS011;53960;51.826;5.850;2024-01-16T04:09:29;8.85;;;2.30;;
67053;SDS011;53960;51.826;5.850;2024-01-16T04:11:54;10.07;;;2.60;;
67053;SDS011;53960;51.826;5.850;2024-01-16T04:14:19;11.17;;;2.87;;
67053;SDS011;53960;51.826;5.850;2024-01-16T04:16:45;7.75;;;2.50;;
67053;SDS011;53960;51.826;5.850;2024-01-16T04:19:10;7.70;;;2.70;;
67053;SDS011;53960;51.826;5.850;2024-01-16T04:21:36;7.77;;;2.40;;
67053;SDS011;53960;51.826;5.850;2024-01-16T04:24:01;7.80;;;2.63;;
67053;SDS011;53960;51.826;5.850;2024-01-16T04:26:27;8.13;;;2.37;;
67053;SDS011;53960;51.826;5.850;2024-01-16T04:28:52;7.05;;;2.28;;
67053;SDS011;53960;51.826;5.850;2024-01-16T04:31:18;8.33;;;2.43;;
67053;SDS011;53960;51.826;5.850;2024-01-16T04:33:44;9.40;;;2.30;;
67053;SDS011;53960;51.826;5.850;2024-01-16T04:36:10;8.47;;;2.10;;
67053;SDS011;53960;51.826;5.850;2024-01-16T04:38:35;7.20;;;1.90;;
67053;SDS011;53960;51.826;5.850;2024-01-16T04:41:01;9.33;;;2.40;;
67053;SDS011;53960;51.826;5.850;2024-01-16T04:43:27;9.65;;;2.20;;
67053;SDS011;53960;51.826;5.850;2024-01-16T04:45:53;7.43;;;1.73;;
67053;SDS011;53960;51.826;5.850;2024-01-16T04:48:18;6.45;;;2.00;;
67053;SDS011;53960;51.826;5.850;2024-01-16T04:50:43;6.80;;;1.90;;
67053;SDS011;53960;51.826;5.850;2024-01-16T04:53:10;8.77;;;2.40;;
67053;SDS011;53960;51.826;5.850;2024-01-16T04:55:36;7.20;;;1.88;;
67053;SDS011;53960;51.826;5.850;2024-01-16T04:58:02;5.40;;;1.40;;
67053;SDS011;53960;51.826;5.850;2024-01-16T05:00:27;5.88;;;1.48;;
67053;SDS011;53960;51.826;5.850;2024-01-16T05:02:52;6.53;;;1.30;;
67053;SDS011;53960;51.826;5.850;2024-01-16T05:05:18;6.07;;;1.40;;
67053;SDS011;53960;51.826;5.850;2024-01-16T05:07:43;8.27;;;1.50;;
67053;SDS011;53960;51.826;5.850;2024-01-16T05:10:10;8.25;;;1.65;;
67053;SDS011;53960;51.826;5.850;2024-01-16T05:12:39;6.75;;;1.50;;
67053;SDS011;53960;51.826;5.850;2024-01-16T05:15:05;7.88;;;1.55;;
67053;SDS011;53960;51.826;5.850;2024-01-16T05:17:32;5.60;;;1.38;;
67053;SDS011;53960;51.826;5.850;2024-01-16T05:19:57;7.67;;;1.63;;
67053;SDS011;53960;51.826;5.850;2024-01-16T05:22:22;6.77;;;1.40;;
67053;SDS011;53960;51.826;5.850;2024-01-16T05:24:48;6.50;;;1.50;;
67053;SDS011;53960;51.826;5.850;2024-01-16T05:27:13;7.27;;;1.60;;
67053;SDS011;53960;51.826;5.850;2024-01-16T05:29:40;10.00;;;2.67;;
67053;SDS011;53960;51.826;5.850;2024-01-16T05:32:06;7.13;;;1.63;;
67053;SDS011;53960;51.826;5.850;2024-01-16T05:34:31;6.63;;;1.63;;
67053;SDS011;53960;51.826;5.850;2024-01-16T05:36:57;8.20;;;1.73;;
67053;SDS011;53960;51.826;5.850;2024-01-16T05:39:22;6.63;;;1.80;;
67053;SDS011;53960;51.826;5.850;2024-01-16T05:41:47;7.80;;;1.80;;
67053;SDS011;53960;51.826;5.850;2024-01-16T05:44:12;7.47;;;2.30;;
67053;SDS011;53960;51.826;5.850;2024-01-16T05:46:38;7.77;;;2.23;;
67053;SDS011;53960;51.826;5.850;2024-01-16T05:49:03;8.17;;;2.23;;
67053;SDS011;53960;51.826;5.850;2024-01-16T05:51:29;8.87;;;2.40;;
67053;SDS011;53960;51.826;5.850;2024-01-16T05:53:55;8.02;;;2.70;;
67053;SDS011;53960;51.826;5.850;2024-01-16T05:56:20;10.07;;;2.70;;
67053;SDS011;53960;51.826;5.850;2024-01-16T05:58:46;10.30;;;2.33;;
67053;SDS011;53960;51.826;5.850;2024-01-16T06:01:11;11.00;;;2.90;;
67053;SDS011;53960;51.826;5.850;2024-01-16T06:03:38;8.73;;;2.53;;
67053;SDS011;53960;51.826;5.850;2024-01-16T06:06:04;10.80;;;3.50;;
67053;SDS011;53960;51.826;5.850;2024-01-16T06:08:30;8.88;;;2.33;;
67053;SDS011;53960;51.826;5.850;2024-01-16T06:10:55;9.17;;;2.60;;
67053;SDS011;53960;51.826;5.850;2024-01-16T06:13:21;11.27;;;3.20;;
67053;SDS011;53960;51.826;5.850;2024-01-16T06:15:47;8.45;;;2.67;;
67053;SDS011;53960;51.826;5.850;2024-01-16T06:18:13;6.87;;;2.40;;
67053;SDS011;53960;51.826;5.850;2024-01-16T06:20:39;7.55;;;2.70;;
67053;SDS011;53960;51.826;5.850;2024-01-16T06:23:04;8.63;;;2.77;;
67053;SDS011;53960;51.826;5.850;2024-01-16T06:25:30;10.83;;;3.20;;
67053;SDS011;53960;51.826;5.850;2024-01-16T06:27:55;7.63;;;2.45;;
67053;SDS011;53960;51.826;5.850;2024-01-16T06:30:21;9.27;;;2.80;;
67053;SDS011;53960;51.826;5.850;2024-01-16T06:32:47;12.77;;;3.17;;
67053;SDS011;53960;51.826;5.850;2024-01-16T06:35:13;12.23;;;3.53;;
67053;SDS011;53960;51.826;5.850;2024-01-16T06:37:39;11.38;;;3.30;;
67053;SDS011;53960;51.826;5.850;2024-01-16T06:40:04;10.50;;;3.10;;
67053;SDS011;53960;51.826;5.850;2024-01-16T06:42:30;9.80;;;3.43;;
67053;SDS011;53960;51.826;5.850;2024-01-16T06:44:56;10.13;;;2.92;;
67053;SDS011;53960;51.826;5.850;2024-01-16T06:47:21;10.03;;;3.43;;
67053;SDS011;53960;51.826;5.850;2024-01-16T06:49:48;10.05;;;3.63;;
67053;SDS011;53960;51.826;5.850;2024-01-16T06:52:14;10.40;;;3.50;;
67053;SDS011;53960;51.826;5.850;2024-01-16T06:54:39;14.80;;;3.90;;
67053;SDS011;53960;51.826;5.850;2024-01-16T06:57:04;11.23;;;3.90;;
67053;SDS011;53960;51.826;5.850;2024-01-16T06:59:30;13.70;;;4.10;;
67053;SDS011;53960;51.826;5.850;2024-01-16T07:01:55;10.73;;;4.20;;
67053;SDS011;53960;51.826;5.850;2024-01-16T07:04:20;15.37;;;5.23;;
67053;SDS011;53960;51.826;5.850;2024-01-16T07:06:46;12.93;;;4.90;;
67053;SDS011;53960;51.826;5.850;2024-01-16T07:09:12;11.43;;;4.38;;
67053;SDS011;53960;51.826;5.850;2024-01-16T07:11:38;12.27;;;4.97;;
67053;SDS011;53960;51.826;5.850;2024-01-16T07:14:07;14.13;;;5.30;;
67053;SDS011;53960;51.826;5.850;2024-01-16T07:16:33;13.05;;;4.25;;
67053;SDS011;53960;51.826;5.850;2024-01-16T07:18:59;15.07;;;5.37;;
67053;SDS011;53960;51.826;5.850;2024-01-16T07:21:24;12.30;;;4.70;;
67053;SDS011;53960;51.826;5.850;2024-01-16T07:23:50;11.43;;;4.80;;
67053;SDS011;53960;51.826;5.850;2024-01-16T07:26:15;14.10;;;4.87;;
67053;SDS011;53960;51.826;5.850;2024-01-16T07:28:41;12.27;;;4.88;;
67053;SDS011;53960;51.826;5.850;2024-01-16T07:31:07;11.70;;;5.33;;
67053;SDS011;53960;51.826;5.850;2024-01-16T07:33:32;10.73;;;5.40;;
67053;SDS011;53960;51.826;5.850;2024-01-16T07:35:57;12.70;;;5.33;;
67053;SDS011;53960;51.826;5.850;2024-01-16T07:38:23;13.82;;;5.90;;
67053;SDS011;53960;51.826;5.850;2024-01-16T07:40:48;13.07;;;5.70;;
67053;SDS011;53960;51.826;5.850;2024-01-16T07:43:14;14.63;;;6.40;;
67053;SDS011;53960;51.826;5.850;2024-01-16T07:45:39;15.73;;;6.33;;
67053;SDS011;53960;51.826;5.850;2024-01-16T07:48:04;16.97;;;5.87;;
67053;SDS011;53960;51.826;5.850;2024-01-16T07:50:30;12.20;;;6.20;;
67053;SDS011;53960;51.826;5.850;2024-01-16T07:52:55;13.23;;;5.90;;
67053;SDS011;53960;51.826;5.850;2024-01-16T07:55:20;11.57;;;4.83;;
67053;SDS011;53960;51.826;5.850;2024-01-16T07:57:46;10.43;;;4.77;;
67053;SDS011;53960;51.826;5.850;2024-01-16T08:00:11;12.87;;;5.50;;
67053;SDS011;53960;51.826;5.850;2024-01-16T08:02:37;10.03;;;4.43;;
67053;SDS011;53960;51.826;5.850;2024-01-16T08:05:02;13.70;;;4.90;;
67053;SDS011;53960;51.826;5.850;2024-01-16T08:07:28;14.15;;;5.18;;
67053;SDS011;53960;51.826;5.850;2024-01-16T08:09:54;13.80;;;4.23;;
67053;SDS011;53960;51.826;5.850;2024-01-16T08:12:19;14.53;;;4.80;;
67053;SDS011;53960;51.826;5.850;2024-01-16T08:14:44;8.90;;;4.20;;
67053;SDS011;53960;51.826;5.850;2024-01-16T08:17:10;12.37;;;4.33;;
67053;SDS011;53960;51.826;5.850;2024-01-16T08:19:35;12.20;;;5.20;;
67053;SDS011;53960;51.826;5.850;2024-01-16T08:22:01;9.93;;;3.63;;
67053;SDS011;53960;51.826;5.850;2024-01-16T08:24:27;9.83;;;3.63;;
67053;SDS011;53960;51.826;5.850;2024-01-16T08:26:53;11.57;;;3.55;;
67053;SDS011;53960;51.826;5.850;2024-01-16T08:29:18;10.97;;;4.27;;
67053;SDS011;53960;51.826;5.850;2024-01-16T08:31:43;10.60;;;3.90;;
67053;SDS011;53960;51.826;5.850;2024-01-16T08:34:09;11.13;;;3.90;;
67053;SDS011;53960;51.826;5.850;2024-01-16T08:36:34;11.40;;;3.87;;
67053;SDS011;53960;51.826;5.850;2024-01-16T08:38:59;9.87;;;4.03;;
67053;SDS011;53960;51.826;5.850;2024-01-16T08:41:24;13.88;;;4.40;;
67053;SDS011;53960;51.826;5.850;2024-01-16T08:43:50;8.93;;;3.63;;
67053;SDS011;53960;51.826;5.850;2024-01-16T08:46:16;12.40;;;3.90;;
67053;SDS011;53960;51.826;5.850;2024-01-16T08:48:44;10.60;;;3.30;;
67053;SDS011;53960;51.826;5.850;2024-01-16T08:51:10;9.07;;;3.67;;
67053;SDS011;53960;51.826;5.850;2024-01-16T08:53:39;10.65;;;3.83;;
67053;SDS011;53960;51.826;5.850;2024-01-16T08:56:04;9.35;;;3.90;;
67053;SDS011;53960;51.826;5.850;2024-01-16T08:58:33;12.70;;;3.97;;
67053;SDS011;53960;51.826;5.850;2024-01-16T09:01:03;11.82;;;3.92;;
67053;SDS011;53960;51.826;5.850;2024-01-16T09:03:30;10.88;;;3.65;;
67053;SDS011;53960;51.826;5.850;2024-01-16T09:05:55;9.65;;;3.40;;
67053;SDS011;53960;51.826;5.850;2024-01-16T09:08:21;10.03;;;2.90;;
67053;SDS011;53960;51.826;5.850;2024-01-16T09:10:46;8.97;;;2.67;;
67053;SDS011;53960;51.826;5.850;2024-01-16T09:13:12;11.30;;;3.30;;
67053;SDS011;53960;51.826;5.850;2024-01-16T09:15:37;13.60;;;3.25;;
67053;SDS011;53960;51.826;5.850;2024-01-16T09:18:03;9.13;;;2.80;;
67053;SDS011;53960;51.826;5.850;2024-01-16T09:20:28;8.43;;;2.80;;
67053;SDS011;53960;51.826;5.850;2024-01-16T09:22:54;9.30;;;3.13;;
67053;SDS011;53960;51.826;5.850;2024-01-16T09:25:19;9.50;;;3.33;;
67053;SDS011;53960;51.826;5.850;2024-01-16T09:27:46;8.87;;;3.13;;
67053;SDS011;53960;51.826;5.850;2024-01-16T09:30:11;10.70;;;3.40;;
67053;SDS011;53960;51.826;5.850;2024-01-16T09:32:37;9.20;;;3.23;;
67053;SDS011;53960;51.826;5.850;2024-01-16T09:35:03;10.73;;;3.22;;
67053;SDS011;53960;51.826;5.850;2024-01-16T09:37:31;9.00;;;3.40;;
67053;SDS011;53960;51.826;5.850;2024-01-16T09:39:56;8.67;;;3.40;;
67053;SDS011;53960;51.826;5.850;2024-01-16T09:42:22;9.07;;;3.38;;
67053;SDS011;53960;51.826;5.850;2024-01-16T09:44:48;16.00;;;3.50;;
67053;SDS011;53960;51.826;5.850;2024-01-16T09:47:14;9.02;;;3.10;;
67053;SDS011;53960;51.826;5.850;2024-01-16T09:49:41;10.70;;;3.53;;
67053;SDS011;53960;51.826;5.850;2024-01-16T09:52:08;12.25;;;3.50;;
67053;SDS011;53960;51.826;5.850;2024-01-16T09:54:33;10.37;;;3.13;;
67053;SDS011;53960;51.826;5.850;2024-01-16T09:56:58;10.93;;;3.37;;
67053;SDS011;53960;51.826;5.850;2024-01-16T09:59:25;8.25;;;2.67;;
67053;SDS011;53960;51.826;5.850;2024-01-16T10:01:52;10.07;;;2.92;;
67053;SDS011;53960;51.826;5.850;2024-01-16T10:04:20;8.30;;;3.13;;
67053;SDS011;53960;51.826;5.850;2024-01-16T10:06:46;10.33;;;3.23;;
67053;SDS011;53960;51.826;5.850;2024-01-16T10:09:14;9.95;;;3.30;;
67053;SDS011;53960;51.826;5.850;2024-01-16T10:11:40;8.60;;;3.85;;
67053;SDS011;53960;51.826;5.850;2024-01-16T10:14:07;14.00;;;5.93;;
67053;SDS011;53960;51.826;5.850;2024-01-16T10:19:21;8.23;;;3.00;;
67053;SDS011;53960;51.826;5.850;2024-01-16T10:21:46;9.27;;;2.80;;
67053;SDS011;53960;51.826;5.850;2024-01-16T10:24:12;11.07;;;3.27;;
67053;SDS011;53960;51.826;5.850;2024-01-16T10:26:38;12.80;;;3.35;;
67053;SDS011;53960;51.826;5.850;2024-01-16T10:29:03;8.67;;;2.60;;
67053;SDS011;53960;51.826;5.850;2024-01-16T10:31:31;11.23;;;3.30;;
67053;SDS011;53960;51.826;5.850;2024-01-16T10:33:56;9.10;;;3.07;;
67053;SDS011;53960;51.826;5.850;2024-01-16T10:36:23;8.37;;;2.93;;
67053;SDS011;53960;51.826;5.850;2024-01-16T10:38:48;9.27;;;3.20;;
67053;SDS011;53960;51.826;5.850;2024-01-16T10:41:19;9.00;;;2.60;;
67053;SDS011;53960;51.826;5.850;2024-01-16T10:43:50;9.55;;;2.83;;
67053;SDS011;53960;51.826;5.850;2024-01-16T10:46:35;8.50;;;2.50;;
67053;SDS011;53960;51.826;5.850;2024-01-16T10:49:04;7.43;;;2.65;;
67053;SDS011;53960;51.826;5.850;2024-01-16T10:51:30;12.23;;;3.20;;
67053;SDS011;53960;51.826;5.850;2024-01-16T10:54:03;9.77;;;3.28;;
67053;SDS011;53960;51.826;5.850;2024-01-16T10:56:33;10.57;;;2.78;;
67053;SDS011;53960;51.826;5.850;2024-01-16T11:01:48;8.88;;;2.83;;
67053;SDS011;53960;51.826;5.850;2024-01-16T11:04:16;7.18;;;2.50;;
67053;SDS011;53960;51.826;5.850;2024-01-16T11:06:43;8.80;;;2.85;;
67053;SDS011;53960;51.826;5.850;2024-01-16T11:09:09;8.98;;;2.70;;
67053;SDS011;53960;51.826;5.850;2024-01-16T11:11:37;8.17;;;2.43;;
67053;SDS011;53960;51.826;5.850;2024-01-16T11:14:04;8.88;;;2.83;;
67053;SDS011;53960;51.826;5.850;2024-01-16T11:16:31;9.75;;;2.75;;
67053;SDS011;53960;51.826;5.850;2024-01-16T11:18:57;9.35;;;3.00;;
67053;SDS011;53960;51.826;5.850;2024-01-16T11:21:23;10.87;;;2.93;;
67053;SDS011;53960;51.826;5.850;2024-01-16T11:23:50;10.50;;;3.42;;
67053;SDS011;53960;51.826;5.850;2024-01-16T11:26:25;9.30;;;3.40;;
67053;SDS011;53960;51.826;5.850;2024-01-16T11:28:57;9.40;;;2.70;;
67053;SDS011;53960;51.826;5.850;2024-01-16T11:31:30;9.88;;;2.90;;
67053;SDS011;53960;51.826;5.850;2024-01-16T11:34:00;7.72;;;2.40;;
67053;SDS011;53960;51.826;5.850;2024-01-16T11:36:59;8.88;;;2.97;;
67053;SDS011;53960;51.826;5.850;2024-01-16T11:39:23;9.73;;;2.70;;
67053;SDS011;53960;51.826;5.850;2024-01-16T11:41:53;10.63;;;2.67;;
67053;SDS011;53960;51.826;5.850;2024-01-16T11:47:21;9.55;;;3.15;;
67053;SDS011;53960;51.826;5.850;2024-01-16T11:49:51;9.45;;;3.00;;
67053;SDS011;53960;51.826;5.850;2024-01-16T11:52:43;9.52;;;3.13;;
67053;SDS011;53960;51.826;5.850;2024-01-16T11:55:25;9.77;;;3.20;;
67053;SDS011;53960;51.826;5.850;2024-01-16T12:00:57;8.23;;;2.63;;
67053;SDS011;53960;51.826;5.850;2024-01-16T12:03:23;10.20;;;3.00;;
67053;SDS011;53960;51.826;5.850;2024-01-16T12:05:58;8.23;;;3.10;;
67053;SDS011;53960;51.826;5.850;2024-01-16T12:08:24;11.13;;;3.47;;
67053;SDS011;53960;51.826;5.850;2024-01-16T12:10:50;10.20;;;3.17;;
67053;SDS011;53960;51.826;5.850;2024-01-16T12:13:15;7.83;;;3.00;;
67053;SDS011;53960;51.826;5.850;2024-01-16T12:15:41;8.55;;;2.90;;
67053;SDS011;53960;51.826;5.850;2024-01-16T12:18:07;12.33;;;3.30;;
67053;SDS011;53960;51.826;5.850;2024-01-16T12:20:33;8.73;;;2.90;;
67053;SDS011;53960;51.826;5.850;2024-01-16T12:25:28;9.00;;;3.17;;
67053;SDS011;53960;51.826;5.850;2024-01-16T12:27:57;8.87;;;3.00;;
67053;SDS011;53960;51.826;5.850;2024-01-16T12:30:27;9.55;;;2.80;;
67053;SDS011;53960;51.826;5.850;2024-01-16T12:33:10;8.68;;;3.45;;
67053;SDS011;53960;51.826;5.850;2024-01-16T12:35:41;6.43;;;2.22;;
67053;SDS011;53960;51.826;5.850;2024-01-16T12:38:08;9.82;;;3.50;;
67053;SDS011;53960;51.826;5.850;2024-01-16T12:40:35;10.77;;;3.50;;
67053;SDS011;53960;51.826;5.850;2024-01-16T12:43:02;9.98;;;2.60;;
67053;SDS011;53960;51.826;5.850;2024-01-16T12:45:28;9.70;;;3.10;;
67053;SDS011;53960;51.826;5.850;2024-01-16T12:47:54;8.33;;;3.30;;
67053;SDS011;53960;51.826;5.850;2024-01-16T12:50:23;10.30;;;3.10;;
67053;SDS011;53960;51.826;5.850;2024-01-16T12:53:04;10.77;;;3.13;;
67053;SDS011;53960;51.826;5.850;2024-01-16T12:55:35;7.93;;;2.97;;
67053;SDS011;53960;51.826;5.850;2024-01-16T13:00:50;6.20;;;2.03;;
67053;SDS011;53960;51.826;5.850;2024-01-16T13:03:20;10.40;;;3.30;;
67053;SDS011;53960;51.826;5.850;2024-01-16T13:08:23;7.55;;;3.22;;
67053;SDS011;53960;51.826;5.850;2024-01-16T13:11:01;7.95;;;2.47;;
67053;SDS011;53960;51.826;5.850;2024-01-16T13:13:31;9.07;;;3.13;;
67053;SDS011;53960;51.826;5.850;2024-01-16T13:15:57;9.88;;;3.40;;
67053;SDS011;53960;51.826;5.850;2024-01-16T13:18:24;9.88;;;3.13;;
67053;SDS011;53960;51.826;5.850;2024-01-16T13:20:51;7.80;;;3.00;;
67053;SDS011;53960;51.826;5.850;2024-01-16T13:23:17;7.40;;;2.42;;
67053;SDS011;53960;51.826;5.850;2024-01-16T13:25:43;11.37;;;3.40;;
67053;SDS011;53960;51.826;5.850;2024-01-16T13:28:10;9.15;;;2.78;;
67053;SDS011;53960;51.826;5.850;2024-01-16T13:30:36;7.13;;;2.90;;
67053;SDS011;53960;51.826;5.850;2024-01-16T13:33:02;8.93;;;3.00;;
67053;SDS011;53960;51.826;5.850;2024-01-16T13:35:29;8.60;;;2.97;;
67053;SDS011;53960;51.826;5.850;2024-01-16T13:37:55;8.90;;;2.53;;
67053;SDS011;53960;51.826;5.850;2024-01-16T13:40:20;8.13;;;2.70;;
67053;SDS011;53960;51.826;5.850;2024-01-16T13:42:47;10.75;;;3.10;;
67053;SDS011;53960;51.826;5.850;2024-01-16T13:45:13;9.07;;;3.22;;
67053;SDS011;53960;51.826;5.850;2024-01-16T13:47:38;10.53;;;2.90;;
67053;SDS011;53960;51.826;5.850;2024-01-16T13:50:05;10.32;;;3.20;;
67053;SDS011;53960;51.826;5.850;2024-01-16T13:52:32;7.07;;;2.67;;
67053;SDS011;53960;51.826;5.850;2024-01-16T13:54:58;9.37;;;2.77;;
67053;SDS011;53960;51.826;5.850;2024-01-16T13:57:26;10.38;;;3.38;;
67053;SDS011;53960;51.826;5.850;2024-01-16T13:59:51;9.70;;;3.30;;
67053;SDS011;53960;51.826;5.850;2024-01-16T14:02:17;9.35;;;2.95;;
67053;SDS011;53960;51.826;5.850;2024-01-16T14:04:42;9.80;;;3.20;;
67053;SDS011;53960;51.826;5.850;2024-01-16T14:07:08;9.50;;;3.07;;
67053;SDS011;53960;51.826;5.850;2024-01-16T14:09:34;8.10;;;2.70;;
67053;SDS011;53960;51.826;5.850;2024-01-16T14:12:01;8.30;;;2.80;;
67053;SDS011;53960;51.826;5.850;2024-01-16T14:14:26;9.13;;;2.80;;
67053;SDS011;53960;51.826;5.850;2024-01-16T14:16:52;9.43;;;3.10;;
67053;SDS011;53960;51.826;5.850;2024-01-16T14:19:19;9.13;;;2.88;;
67053;SDS011;53960;51.826;5.850;2024-01-16T14:21:45;9.10;;;3.30;;
67053;SDS011;53960;51.826;5.850;2024-01-16T14:24:13;8.85;;;2.97;;
67053;SDS011;53960;51.826;5.850;2024-01-16T14:26:38;9.57;;;2.70;;
67053;SDS011;53960;51.826;5.850;2024-01-16T14:29:09;8.95;;;3.30;;
67053;SDS011;53960;51.826;5.850;2024-01-16T14:31:34;9.77;;;3.00;;
67053;SDS011;53960;51.826;5.850;2024-01-16T14:34:00;11.03;;;2.97;;
67053;SDS011;53960;51.826;5.850;2024-01-16T14:36:25;8.38;;;2.50;;
67053;SDS011;53960;51.826;5.850;2024-01-16T14:38:51;10.40;;;3.13;;
67053;SDS011;53960;51.826;5.850;2024-01-16T14:41:16;8.80;;;2.70;;
67053;SDS011;53960;51.826;5.850;2024-01-16T14:43:42;9.43;;;3.10;;
67053;SDS011;53960;51.826;5.850;2024-01-16T14:46:07;8.23;;;3.30;;
67053;SDS011;53960;51.826;5.850;2024-01-16T14:48:35;8.87;;;3.00;;
67053;SDS011;53960;51.826;5.850;2024-01-16T14:51:13;7.93;;;2.70;;
67053;SDS011;53960;51.826;5.850;2024-01-16T14:53:38;10.13;;;2.45;;
67053;SDS011;53960;51.826;5.850;2024-01-16T14:56:04;7.30;;;2.70;;
67053;SDS011;53960;51.826;5.850;2024-01-16T14:58:30;7.78;;;2.63;;